Terminal Aerodrome Forecast
Issued by NWS Bismarck, ND

Home | Current Version | Previous Version | Graphics & Text | Print | Product List | Glossary On
Versions: 1 2 3 4 5 6 7 8 9 10 11 12 13 14 15 16 17 18 19 20 21 22 23 24 25 26 27 28 29 30
880
FTUS43 KBIS 200541
TAFBIS
TAF
KBIS 200541Z 2006/2106 11004KT P6SM SKC
      TEMPO 2006/2007 3/4SM BR BKN002
     FM200700 11003KT 1/2SM FG OVC001
     FM201700 00000KT 1SM BR SCT002 OVC004
     FM202100 12004KT 2SM BR OVC007
     FM210000 10004KT 4SM BR OVC003=

USA.gov is the U.S. government's official web portal to all federal, state and local government web resources and services.